sensor_id;sensor_type;location;lat;lon;timestamp;P1;durP1;ratioP1;P2;durP2;ratioP2
73642;SDS011;61938;48.652;9.292;2023-06-22T00:01:55;15.90;;;10.40;;
73642;SDS011;61938;48.652;9.292;2023-06-22T00:04:21;17.63;;;10.65;;
73642;SDS011;61938;48.652;9.292;2023-06-22T00:06:46;18.85;;;11.32;;
73642;SDS011;61938;48.652;9.292;2023-06-22T00:09:12;15.85;;;10.40;;
73642;SDS011;61938;48.652;9.292;2023-06-22T00:11:37;19.40;;;10.13;;
73642;SDS011;61938;48.652;9.292;2023-06-22T00:14:03;21.75;;;10.65;;
73642;SDS011;61938;48.652;9.292;2023-06-22T00:16:29;17.75;;;10.63;;
73642;SDS011;61938;48.652;9.292;2023-06-22T00:18:56;19.27;;;10.82;;
73642;SDS011;61938;48.652;9.292;2023-06-22T00:21:25;15.68;;;10.38;;
73642;SDS011;61938;48.652;9.292;2023-06-22T00:23:53;20.92;;;10.95;;
73642;SDS011;61938;48.652;9.292;2023-06-22T00:26:20;20.42;;;11.82;;
73642;SDS011;61938;48.652;9.292;2023-06-22T00:28:45;16.55;;;10.60;;
73642;SDS011;61938;48.652;9.292;2023-06-22T00:31:11;18.30;;;10.63;;
73642;SDS011;61938;48.652;9.292;2023-06-22T00:33:37;15.75;;;10.75;;
73642;SDS011;61938;48.652;9.292;2023-06-22T00:36:03;17.67;;;10.32;;
73642;SDS011;61938;48.652;9.292;2023-06-22T00:38:29;17.88;;;11.05;;
73642;SDS011;61938;48.652;9.292;2023-06-22T00:40:54;20.58;;;10.40;;
73642;SDS011;61938;48.652;9.292;2023-06-22T00:43:20;17.27;;;10.30;;
73642;SDS011;61938;48.652;9.292;2023-06-22T00:45:45;16.73;;;11.00;;
73642;SDS011;61938;48.652;9.292;2023-06-22T00:48:12;22.02;;;11.70;;
73642;SDS011;61938;48.652;9.292;2023-06-22T00:50:38;16.27;;;9.85;;
73642;SDS011;61938;48.652;9.292;2023-06-22T00:53:05;17.58;;;10.27;;
73642;SDS011;61938;48.652;9.292;2023-06-22T00:55:37;15.93;;;9.65;;
73642;SDS011;61938;48.652;9.292;2023-06-22T00:58:08;17.42;;;10.48;;
73642;SDS011;61938;48.652;9.292;2023-06-22T01:00:35;15.60;;;9.70;;
73642;SDS011;61938;48.652;9.292;2023-06-22T01:03:02;19.38;;;10.90;;
73642;SDS011;61938;48.652;9.292;2023-06-22T01:05:28;14.68;;;9.82;;
73642;SDS011;61938;48.652;9.292;2023-06-22T01:08:08;16.25;;;10.25;;
73642;SDS011;61938;48.652;9.292;2023-06-22T01:11:16;17.23;;;10.73;;
73642;SDS011;61938;48.652;9.292;2023-06-22T01:13:55;17.05;;;11.30;;
73642;SDS011;61938;48.652;9.292;2023-06-22T01:16:29;22.10;;;11.50;;
73642;SDS011;61938;48.652;9.292;2023-06-22T01:18:57;18.65;;;10.57;;
73642;SDS011;61938;48.652;9.292;2023-06-22T01:21:28;20.25;;;11.50;;
73642;SDS011;61938;48.652;9.292;2023-06-22T01:29:38;18.63;;;10.75;;
73642;SDS011;61938;48.652;9.292;2023-06-22T01:32:05;21.80;;;11.77;;
73642;SDS011;61938;48.652;9.292;2023-06-22T01:34:31;17.33;;;10.55;;
73642;SDS011;61938;48.652;9.292;2023-06-22T01:36:58;20.48;;;11.00;;
73642;SDS011;61938;48.652;9.292;2023-06-22T01:39:25;18.50;;;11.63;;
73642;SDS011;61938;48.652;9.292;2023-06-22T01:41:51;17.92;;;10.73;;
73642;SDS011;61938;48.652;9.292;2023-06-22T01:44:18;19.27;;;10.40;;
73642;SDS011;61938;48.652;9.292;2023-06-22T01:46:44;18.48;;;10.70;;
73642;SDS011;61938;48.652;9.292;2023-06-22T01:49:10;22.83;;;11.73;;
73642;SDS011;61938;48.652;9.292;2023-06-22T01:51:36;26.20;;;10.85;;
73642;SDS011;61938;48.652;9.292;2023-06-22T01:54:01;24.25;;;11.15;;
73642;SDS011;61938;48.652;9.292;2023-06-22T01:56:28;20.38;;;10.90;;
73642;SDS011;61938;48.652;9.292;2023-06-22T01:58:57;25.70;;;12.07;;
73642;SDS011;61938;48.652;9.292;2023-06-22T02:01:25;17.92;;;10.77;;
73642;SDS011;61938;48.652;9.292;2023-06-22T02:04:42;19.10;;;11.45;;
73642;SDS011;61938;48.652;9.292;2023-06-22T02:06:51;17.05;;;10.73;;
73642;SDS011;61938;48.652;9.292;2023-06-22T02:09:22;23.80;;;12.05;;
73642;SDS011;61938;48.652;9.292;2023-06-22T02:11:50;24.80;;;12.27;;
73642;SDS011;61938;48.652;9.292;2023-06-22T02:14:20;20.77;;;11.13;;
73642;SDS011;61938;48.652;9.292;2023-06-22T02:16:46;20.00;;;9.70;;
73642;SDS011;61938;48.652;9.292;2023-06-22T02:19:12;19.05;;;10.60;;
73642;SDS011;61938;48.652;9.292;2023-06-22T02:21:41;23.70;;;10.27;;
73642;SDS011;61938;48.652;9.292;2023-06-22T02:24:07;19.58;;;9.40;;
73642;SDS011;61938;48.652;9.292;2023-06-22T02:26:32;22.58;;;10.07;;
73642;SDS011;61938;48.652;9.292;2023-06-22T02:28:58;16.70;;;10.10;;
73642;SDS011;61938;48.652;9.292;2023-06-22T02:31:23;19.25;;;11.00;;
73642;SDS011;61938;48.652;9.292;2023-06-22T02:33:55;20.05;;;9.90;;
73642;SDS011;61938;48.652;9.292;2023-06-22T02:36:24;19.10;;;10.65;;
73642;SDS011;61938;48.652;9.292;2023-06-22T02:38:51;19.75;;;10.15;;
73642;SDS011;61938;48.652;9.292;2023-06-22T02:41:17;16.65;;;9.57;;
73642;SDS011;61938;48.652;9.292;2023-06-22T02:43:46;23.10;;;9.98;;
73642;SDS011;61938;48.652;9.292;2023-06-22T02:46:12;17.45;;;9.48;;
73642;SDS011;61938;48.652;9.292;2023-06-22T02:48:39;17.05;;;10.63;;
73642;SDS011;61938;48.652;9.292;2023-06-22T02:51:05;16.50;;;9.02;;
73642;SDS011;61938;48.652;9.292;2023-06-22T02:53:31;18.52;;;9.88;;
73642;SDS011;61938;48.652;9.292;2023-06-22T02:55:57;20.00;;;9.73;;
73642;SDS011;61938;48.652;9.292;2023-06-22T02:58:22;16.05;;;9.27;;
73642;SDS011;61938;48.652;9.292;2023-06-22T03:00:49;19.42;;;9.45;;
73642;SDS011;61938;48.652;9.292;2023-06-22T03:03:18;18.85;;;9.35;;
73642;SDS011;61938;48.652;9.292;2023-06-22T03:05:44;16.25;;;10.52;;
73642;SDS011;61938;48.652;9.292;2023-06-22T03:08:09;13.65;;;9.82;;
73642;SDS011;61938;48.652;9.292;2023-06-22T03:10:35;21.08;;;10.65;;
73642;SDS011;61938;48.652;9.292;2023-06-22T03:13:00;16.95;;;9.27;;
73642;SDS011;61938;48.652;9.292;2023-06-22T03:15:26;16.98;;;9.88;;
73642;SDS011;61938;48.652;9.292;2023-06-22T03:17:54;18.55;;;9.65;;
73642;SDS011;61938;48.652;9.292;2023-06-22T03:20:20;13.07;;;8.75;;
73642;SDS011;61938;48.652;9.292;2023-06-22T03:22:45;19.45;;;9.07;;
73642;SDS011;61938;48.652;9.292;2023-06-22T03:25:11;18.67;;;9.73;;
73642;SDS011;61938;48.652;9.292;2023-06-22T03:27:40;13.75;;;9.27;;
73642;SDS011;61938;48.652;9.292;2023-06-22T03:30:07;21.85;;;8.95;;
73642;SDS011;61938;48.652;9.292;2023-06-22T03:32:34;19.13;;;10.13;;
73642;SDS011;61938;48.652;9.292;2023-06-22T03:35:00;19.00;;;10.43;;
73642;SDS011;61938;48.652;9.292;2023-06-22T03:37:26;17.45;;;9.70;;
73642;SDS011;61938;48.652;9.292;2023-06-22T03:39:52;19.63;;;10.20;;
73642;SDS011;61938;48.652;9.292;2023-06-22T03:42:18;17.10;;;10.73;;
73642;SDS011;61938;48.652;9.292;2023-06-22T03:44:43;19.17;;;10.85;;
73642;SDS011;61938;48.652;9.292;2023-06-22T03:47:09;22.75;;;11.32;;
73642;SDS011;61938;48.652;9.292;2023-06-22T03:49:34;23.92;;;10.82;;
73642;SDS011;61938;48.652;9.292;2023-06-22T03:52:01;21.20;;;10.98;;
73642;SDS011;61938;48.652;9.292;2023-06-22T03:54:28;19.42;;;10.80;;
73642;SDS011;61938;48.652;9.292;2023-06-22T03:56:54;25.15;;;11.70;;
73642;SDS011;61938;48.652;9.292;2023-06-22T03:59:19;24.55;;;11.00;;
73642;SDS011;61938;48.652;9.292;2023-06-22T04:01:45;22.25;;;12.20;;
73642;SDS011;61938;48.652;9.292;2023-06-22T04:04:11;25.85;;;12.40;;
73642;SDS011;61938;48.652;9.292;2023-06-22T04:06:37;24.38;;;13.18;;
73642;SDS011;61938;48.652;9.292;2023-06-22T04:09:03;19.35;;;11.70;;
73642;SDS011;61938;48.652;9.292;2023-06-22T04:11:30;23.33;;;11.90;;
73642;SDS011;61938;48.652;9.292;2023-06-22T04:13:55;20.88;;;11.90;;
73642;SDS011;61938;48.652;9.292;2023-06-22T04:16:21;22.90;;;11.48;;
73642;SDS011;61938;48.652;9.292;2023-06-22T04:18:46;21.20;;;12.13;;
73642;SDS011;61938;48.652;9.292;2023-06-22T04:21:12;15.15;;;10.23;;
73642;SDS011;61938;48.652;9.292;2023-06-22T04:23:38;20.50;;;11.65;;
73642;SDS011;61938;48.652;9.292;2023-06-22T04:26:04;19.60;;;11.52;;
73642;SDS011;61938;48.652;9.292;2023-06-22T04:28:29;22.23;;;11.60;;
73642;SDS011;61938;48.652;9.292;2023-06-22T04:31:00;22.63;;;11.57;;
73642;SDS011;61938;48.652;9.292;2023-06-22T04:33:27;23.00;;;10.32;;
73642;SDS011;61938;48.652;9.292;2023-06-22T04:35:54;17.52;;;11.55;;
73642;SDS011;61938;48.652;9.292;2023-06-22T04:38:22;19.40;;;11.77;;
73642;SDS011;61938;48.652;9.292;2023-06-22T04:40:47;21.90;;;11.23;;
73642;SDS011;61938;48.652;9.292;2023-06-22T04:43:13;17.55;;;10.13;;
73642;SDS011;61938;48.652;9.292;2023-06-22T04:45:38;18.63;;;10.55;;
73642;SDS011;61938;48.652;9.292;2023-06-22T04:48:04;16.63;;;9.90;;
73642;SDS011;61938;48.652;9.292;2023-06-22T04:50:30;20.30;;;10.55;;
73642;SDS011;61938;48.652;9.292;2023-06-22T04:52:56;14.95;;;10.57;;
73642;SDS011;61938;48.652;9.292;2023-06-22T04:55:21;23.52;;;10.57;;
73642;SDS011;61938;48.652;9.292;2023-06-22T04:57:47;21.08;;;10.63;;
73642;SDS011;61938;48.652;9.292;2023-06-22T05:00:16;15.43;;;10.30;;
73642;SDS011;61938;48.652;9.292;2023-06-22T05:02:44;21.58;;;10.65;;
73642;SDS011;61938;48.652;9.292;2023-06-22T05:05:11;19.23;;;10.75;;
73642;SDS011;61938;48.652;9.292;2023-06-22T05:07:39;17.45;;;9.93;;
73642;SDS011;61938;48.652;9.292;2023-06-22T05:10:08;19.75;;;10.25;;
73642;SDS011;61938;48.652;9.292;2023-06-22T05:12:37;15.55;;;10.43;;
73642;SDS011;61938;48.652;9.292;2023-06-22T05:15:03;15.93;;;9.27;;
73642;SDS011;61938;48.652;9.292;2023-06-22T05:17:30;14.80;;;9.35;;
73642;SDS011;61938;48.652;9.292;2023-06-22T05:19:55;19.95;;;8.98;;
73642;SDS011;61938;48.652;9.292;2023-06-22T05:22:21;23.25;;;10.30;;
73642;SDS011;61938;48.652;9.292;2023-06-22T05:24:46;22.92;;;10.00;;
73642;SDS011;61938;48.652;9.292;2023-06-22T05:27:12;21.58;;;9.80;;
73642;SDS011;61938;48.652;9.292;2023-06-22T05:29:38;17.00;;;9.40;;
73642;SDS011;61938;48.652;9.292;2023-06-22T05:32:04;15.65;;;10.30;;
73642;SDS011;61938;48.652;9.292;2023-06-22T05:34:30;16.65;;;8.52;;
73642;SDS011;61938;48.652;9.292;2023-06-22T05:36:56;14.20;;;8.82;;
73642;SDS011;61938;48.652;9.292;2023-06-22T05:39:23;15.75;;;9.23;;
73642;SDS011;61938;48.652;9.292;2023-06-22T05:41:49;18.23;;;8.48;;
73642;SDS011;61938;48.652;9.292;2023-06-22T05:44:15;15.80;;;9.27;;
73642;SDS011;61938;48.652;9.292;2023-06-22T05:46:40;18.33;;;8.93;;
73642;SDS011;61938;48.652;9.292;2023-06-22T05:49:12;15.65;;;9.07;;
73642;SDS011;61938;48.652;9.292;2023-06-22T05:51:38;16.02;;;8.75;;
73642;SDS011;61938;48.652;9.292;2023-06-22T05:54:03;18.27;;;8.23;;
73642;SDS011;61938;48.652;9.292;2023-06-22T05:56:29;19.63;;;9.48;;
73642;SDS011;61938;48.652;9.292;2023-06-22T05:58:54;16.17;;;8.77;;
73642;SDS011;61938;48.652;9.292;2023-06-22T06:01:20;16.08;;;7.80;;
73642;SDS011;61938;48.652;9.292;2023-06-22T06:03:46;15.77;;;7.90;;
73642;SDS011;61938;48.652;9.292;2023-06-22T06:06:11;16.42;;;8.93;;
73642;SDS011;61938;48.652;9.292;2023-06-22T06:08:37;19.00;;;8.23;;
73642;SDS011;61938;48.652;9.292;2023-06-22T06:11:03;13.30;;;7.63;;
73642;SDS011;61938;48.652;9.292;2023-06-22T06:13:29;16.95;;;7.75;;
73642;SDS011;61938;48.652;9.292;2023-06-22T06:15:56;17.08;;;7.40;;
73642;SDS011;61938;48.652;9.292;2023-06-22T06:18:22;21.83;;;7.32;;
73642;SDS011;61938;48.652;9.292;2023-06-22T06:20:48;12.57;;;7.15;;
73642;SDS011;61938;48.652;9.292;2023-06-22T06:23:13;14.27;;;7.57;;
73642;SDS011;61938;48.652;9.292;2023-06-22T06:25:39;13.90;;;7.50;;
73642;SDS011;61938;48.652;9.292;2023-06-22T06:28:04;18.73;;;7.20;;
73642;SDS011;61938;48.652;9.292;2023-06-22T06:30:30;12.27;;;6.88;;
73642;SDS011;61938;48.652;9.292;2023-06-22T06:32:56;13.35;;;6.15;;
73642;SDS011;61938;48.652;9.292;2023-06-22T06:35:21;16.30;;;7.07;;
73642;SDS011;61938;48.652;9.292;2023-06-22T06:37:48;9.02;;;5.43;;
73642;SDS011;61938;48.652;9.292;2023-06-22T06:40:14;15.50;;;6.53;;
73642;SDS011;61938;48.652;9.292;2023-06-22T06:42:42;10.60;;;6.45;;
73642;SDS011;61938;48.652;9.292;2023-06-22T06:45:10;14.50;;;5.85;;
73642;SDS011;61938;48.652;9.292;2023-06-22T06:47:37;13.60;;;6.25;;
73642;SDS011;61938;48.652;9.292;2023-06-22T06:50:04;11.68;;;6.03;;
73642;SDS011;61938;48.652;9.292;2023-06-22T06:52:30;12.13;;;6.35;;
73642;SDS011;61938;48.652;9.292;2023-06-22T06:54:55;14.60;;;5.85;;
73642;SDS011;61938;48.652;9.292;2023-06-22T06:57:21;15.85;;;6.13;;
73642;SDS011;61938;48.652;9.292;2023-06-22T06:59:47;11.65;;;5.60;;
73642;SDS011;61938;48.652;9.292;2023-06-22T07:02:14;12.13;;;5.85;;
73642;SDS011;61938;48.652;9.292;2023-06-22T07:04:40;10.48;;;6.28;;
73642;SDS011;61938;48.652;9.292;2023-06-22T07:07:06;13.27;;;5.47;;
73642;SDS011;61938;48.652;9.292;2023-06-22T07:09:32;11.10;;;6.00;;
73642;SDS011;61938;48.652;9.292;2023-06-22T07:11:58;14.80;;;5.60;;
73642;SDS011;61938;48.652;9.292;2023-06-22T07:14:23;16.50;;;7.00;;
73642;SDS011;61938;48.652;9.292;2023-06-22T07:16:48;12.63;;;5.40;;
73642;SDS011;61938;48.652;9.292;2023-06-22T07:19:14;10.07;;;5.40;;
73642;SDS011;61938;48.652;9.292;2023-06-22T07:21:40;12.07;;;6.07;;
73642;SDS011;61938;48.652;9.292;2023-06-22T07:24:06;11.05;;;5.47;;
73642;SDS011;61938;48.652;9.292;2023-06-22T07:26:32;10.85;;;4.90;;
73642;SDS011;61938;48.652;9.292;2023-06-22T07:28:58;12.35;;;6.20;;
73642;SDS011;61938;48.652;9.292;2023-06-22T07:31:24;8.63;;;4.97;;
73642;SDS011;61938;48.652;9.292;2023-06-22T07:33:50;14.90;;;6.07;;
73642;SDS011;61938;48.652;9.292;2023-06-22T07:36:16;20.23;;;6.35;;
73642;SDS011;61938;48.652;9.292;2023-06-22T07:38:42;9.48;;;5.50;;
73642;SDS011;61938;48.652;9.292;2023-06-22T07:41:08;20.02;;;6.25;;
73642;SDS011;61938;48.652;9.292;2023-06-22T07:43:33;13.32;;;5.65;;
73642;SDS011;61938;48.652;9.292;2023-06-22T07:46:01;16.15;;;5.72;;
73642;SDS011;61938;48.652;9.292;2023-06-22T07:48:30;15.73;;;5.40;;
73642;SDS011;61938;48.652;9.292;2023-06-22T07:50:55;14.27;;;5.30;;
73642;SDS011;61938;48.652;9.292;2023-06-22T07:53:21;11.38;;;6.47;;
73642;SDS011;61938;48.652;9.292;2023-06-22T07:55:48;9.85;;;5.43;;
73642;SDS011;61938;48.652;9.292;2023-06-22T07:58:13;15.82;;;5.68;;
73642;SDS011;61938;48.652;9.292;2023-06-22T08:00:40;16.05;;;5.90;;
73642;SDS011;61938;48.652;9.292;2023-06-22T08:03:06;20.10;;;6.43;;
73642;SDS011;61938;48.652;9.292;2023-06-22T08:05:32;14.98;;;6.15;;
73642;SDS011;61938;48.652;9.292;2023-06-22T08:07:57;14.05;;;6.10;;
73642;SDS011;61938;48.652;9.292;2023-06-22T08:10:23;13.63;;;6.38;;
73642;SDS011;61938;48.652;9.292;2023-06-22T08:12:48;16.38;;;6.00;;
73642;SDS011;61938;48.652;9.292;2023-06-22T08:15:14;15.32;;;5.95;;
73642;SDS011;61938;48.652;9.292;2023-06-22T08:17:40;15.48;;;6.60;;
73642;SDS011;61938;48.652;9.292;2023-06-22T08:20:06;13.13;;;5.93;;
73642;SDS011;61938;48.652;9.292;2023-06-22T08:22:36;18.77;;;7.13;;
73642;SDS011;61938;48.652;9.292;2023-06-22T08:25:02;15.93;;;6.55;;
73642;SDS011;61938;48.652;9.292;2023-06-22T08:27:29;10.48;;;5.80;;
73642;SDS011;61938;48.652;9.292;2023-06-22T08:29:56;19.15;;;7.05;;
73642;SDS011;61938;48.652;9.292;2023-06-22T08:32:25;14.32;;;6.00;;
73642;SDS011;61938;48.652;9.292;2023-06-22T08:34:54;20.40;;;6.10;;
73642;SDS011;61938;48.652;9.292;2023-06-22T08:37:21;13.93;;;6.03;;
73642;SDS011;61938;48.652;9.292;2023-06-22T08:39:56;15.38;;;6.63;;
73642;SDS011;61938;48.652;9.292;2023-06-22T08:42:25;11.60;;;6.50;;
73642;SDS011;61938;48.652;9.292;2023-06-22T08:44:51;13.38;;;6.70;;
73642;SDS011;61938;48.652;9.292;2023-06-22T08:47:18;20.98;;;6.10;;
73642;SDS011;61938;48.652;9.292;2023-06-22T08:49:44;20.38;;;7.22;;
73642;SDS011;61938;48.652;9.292;2023-06-22T08:52:09;18.67;;;6.72;;
73642;SDS011;61938;48.652;9.292;2023-06-22T08:54:34;20.25;;;6.53;;
73642;SDS011;61938;48.652;9.292;2023-06-22T08:57:00;14.40;;;6.88;;
73642;SDS011;61938;48.652;9.292;2023-06-22T08:59:27;17.25;;;7.68;;
73642;SDS011;61938;48.652;9.292;2023-06-22T09:01:53;14.93;;;6.53;;
73642;SDS011;61938;48.652;9.292;2023-06-22T09:04:18;14.70;;;6.93;;
73642;SDS011;61938;48.652;9.292;2023-06-22T09:06:47;26.02;;;7.00;;
73642;SDS011;61938;48.652;9.292;2023-06-22T09:09:13;18.80;;;7.25;;
73642;SDS011;61938;48.652;9.292;2023-06-22T09:11:39;16.92;;;7.10;;
73642;SDS011;61938;48.652;9.292;2023-06-22T09:14:05;12.93;;;6.65;;
73642;SDS011;61938;48.652;9.292;2023-06-22T09:16:30;17.92;;;7.20;;
73642;SDS011;61938;48.652;9.292;2023-06-22T09:18:56;17.67;;;7.28;;
73642;SDS011;61938;48.652;9.292;2023-06-22T09:21:21;17.52;;;7.22;;
73642;SDS011;61938;48.652;9.292;2023-06-22T09:23:48;20.20;;;7.07;;
73642;SDS011;61938;48.652;9.292;2023-06-22T09:26:16;17.15;;;7.43;;
73642;SDS011;61938;48.652;9.292;2023-06-22T09:28:42;23.30;;;7.82;;
73642;SDS011;61938;48.652;9.292;2023-06-22T09:31:07;14.45;;;7.03;;
73642;SDS011;61938;48.652;9.292;2023-06-22T09:33:33;17.23;;;7.10;;
73642;SDS011;61938;48.652;9.292;2023-06-22T09:35:58;13.65;;;6.60;;
73642;SDS011;61938;48.652;9.292;2023-06-22T09:38:24;18.60;;;6.72;;
73642;SDS011;61938;48.652;9.292;2023-06-22T09:40:49;22.13;;;7.22;;
73642;SDS011;61938;48.652;9.292;2023-06-22T09:43:15;17.27;;;7.28;;
73642;SDS011;61938;48.652;9.292;2023-06-22T09:45:40;19.38;;;7.70;;
73642;SDS011;61938;48.652;9.292;2023-06-22T09:48:06;16.65;;;6.68;;
73642;SDS011;61938;48.652;9.292;2023-06-22T09:50:31;19.92;;;6.90;;
73642;SDS011;61938;48.652;9.292;2023-06-22T09:52:56;18.58;;;7.07;;
73642;SDS011;61938;48.652;9.292;2023-06-22T09:55:22;17.02;;;6.20;;
73642;SDS011;61938;48.652;9.292;2023-06-22T09:57:47;16.55;;;6.97;;
73642;SDS011;61938;48.652;9.292;2023-06-22T10:00:15;17.10;;;7.28;;
73642;SDS011;61938;48.652;9.292;2023-06-22T10:02:42;17.02;;;6.72;;
73642;SDS011;61938;48.652;9.292;2023-06-22T10:05:08;24.45;;;7.93;;
73642;SDS011;61938;48.652;9.292;2023-06-22T10:07:33;9.13;;;5.82;;
73642;SDS011;61938;48.652;9.292;2023-06-22T10:09:59;11.18;;;6.00;;
73642;SDS011;61938;48.652;9.292;2023-06-22T10:12:26;17.08;;;7.35;;
73642;SDS011;61938;48.652;9.292;2023-06-22T10:14:52;18.23;;;7.28;;
73642;SDS011;61938;48.652;9.292;2023-06-22T10:17:18;14.88;;;7.30;;
73642;SDS011;61938;48.652;9.292;2023-06-22T10:19:43;21.33;;;6.75;;
73642;SDS011;61938;48.652;9.292;2023-06-22T10:22:09;13.85;;;6.90;;
73642;SDS011;61938;48.652;9.292;2023-06-22T10:24:34;15.70;;;7.07;;
73642;SDS011;61938;48.652;9.292;2023-06-22T10:27:00;17.27;;;6.80;;
73642;SDS011;61938;48.652;9.292;2023-06-22T10:29:25;16.40;;;7.35;;
73642;SDS011;61938;48.652;9.292;2023-06-22T10:31:51;14.60;;;6.47;;
73642;SDS011;61938;48.652;9.292;2023-06-22T10:34:16;9.77;;;6.80;;
73642;SDS011;61938;48.652;9.292;2023-06-22T10:36:42;18.17;;;7.13;;
73642;SDS011;61938;48.652;9.292;2023-06-22T10:39:07;18.55;;;7.13;;
73642;SDS011;61938;48.652;9.292;2023-06-22T10:41:33;20.40;;;6.85;;
73642;SDS011;61938;48.652;9.292;2023-06-22T10:43:59;17.95;;;7.10;;
73642;SDS011;61938;48.652;9.292;2023-06-22T10:46:25;21.80;;;7.03;;
73642;SDS011;61938;48.652;9.292;2023-06-22T10:48:51;18.33;;;7.00;;
73642;SDS011;61938;48.652;9.292;2023-06-22T10:51:19;25.77;;;8.15;;
73642;SDS011;61938;48.652;9.292;2023-06-22T10:53:44;15.70;;;7.25;;
73642;SDS011;61938;48.652;9.292;2023-06-22T10:56:10;18.02;;;6.57;;
73642;SDS011;61938;48.652;9.292;2023-06-22T10:58:35;22.10;;;7.85;;
73642;SDS011;61938;48.652;9.292;2023-06-22T11:01:01;20.35;;;7.00;;
73642;SDS011;61938;48.652;9.292;2023-06-22T11:03:27;24.98;;;6.60;;
73642;SDS011;61938;48.652;9.292;2023-06-22T11:05:53;17.30;;;7.63;;
73642;SDS011;61938;48.652;9.292;2023-06-22T11:08:18;15.23;;;6.22;;
73642;SDS011;61938;48.652;9.292;2023-06-22T11:10:44;18.67;;;6.43;;
73642;SDS011;61938;48.652;9.292;2023-06-22T11:13:10;23.42;;;6.68;;
73642;SDS011;61938;48.652;9.292;2023-06-22T11:15:36;19.25;;;6.90;;
73642;SDS011;61938;48.652;9.292;2023-06-22T11:18:02;16.88;;;7.28;;
73642;SDS011;61938;48.652;9.292;2023-06-22T11:20:30;19.45;;;6.95;;
73642;SDS011;61938;48.652;9.292;2023-06-22T11:22:55;22.50;;;7.70;;
73642;SDS011;61938;48.652;9.292;2023-06-22T11:25:21;17.10;;;6.75;;
73642;SDS011;61938;48.652;9.292;2023-06-22T11:27:46;16.30;;;7.32;;
73642;SDS011;61938;48.652;9.292;2023-06-22T11:30:12;24.15;;;7.45;;
73642;SDS011;61938;48.652;9.292;2023-06-22T11:32:37;16.58;;;7.28;;
73642;SDS011;61938;48.652;9.292;2023-06-22T11:35:03;23.23;;;7.40;;
73642;SDS011;61938;48.652;9.292;2023-06-22T11:37:28;15.57;;;6.57;;
73642;SDS011;61938;48.652;9.292;2023-06-22T11:39:54;20.80;;;7.15;;
73642;SDS011;61938;48.652;9.292;2023-06-22T11:42:19;20.55;;;7.25;;
73642;SDS011;61938;48.652;9.292;2023-06-22T11:44:45;22.23;;;7.35;;
73642;SDS011;61938;48.652;9.292;2023-06-22T11:47:11;16.33;;;7.05;;
73642;SDS011;61938;48.652;9.292;2023-06-22T11:49:36;20.88;;;7.25;;
73642;SDS011;61938;48.652;9.292;2023-06-22T11:52:02;16.60;;;6.53;;
73642;SDS011;61938;48.652;9.292;2023-06-22T11:54:27;19.90;;;7.32;;
73642;SDS011;61938;48.652;9.292;2023-06-22T11:56:53;17.30;;;6.85;;
73642;SDS011;61938;48.652;9.292;2023-06-22T11:59:18;15.55;;;6.57;;
73642;SDS011;61938;48.652;9.292;2023-06-22T12:01:44;18.05;;;6.45;;
73642;SDS011;61938;48.652;9.292;2023-06-22T12:04:09;24.17;;;6.85;;
73642;SDS011;61938;48.652;9.292;2023-06-22T12:06:37;27.02;;;7.30;;
73642;SDS011;61938;48.652;9.292;2023-06-22T12:09:06;16.47;;;6.00;;
73642;SDS011;61938;48.652;9.292;2023-06-22T12:11:31;33.67;;;7.22;;
73642;SDS011;61938;48.652;9.292;2023-06-22T12:13:57;23.83;;;6.78;;
73642;SDS011;61938;48.652;9.292;2023-06-22T12:16:26;17.90;;;6.65;;
73642;SDS011;61938;48.652;9.292;2023-06-22T12:18:52;19.65;;;6.72;;
73642;SDS011;61938;48.652;9.292;2023-06-22T12:21:18;18.70;;;6.85;;
73642;SDS011;61938;48.652;9.292;2023-06-22T12:23:44;20.10;;;6.65;;
73642;SDS011;61938;48.652;9.292;2023-06-22T12:26:09;20.23;;;6.35;;
73642;SDS011;61938;48.652;9.292;2023-06-22T12:28:35;14.68;;;6.63;;
73642;SDS011;61938;48.652;9.292;2023-06-22T12:31:00;20.02;;;6.57;;
73642;SDS011;61938;48.652;9.292;2023-06-22T12:33:26;30.20;;;7.38;;
73642;SDS011;61938;48.652;9.292;2023-06-22T12:35:51;26.80;;;6.90;;
73642;SDS011;61938;48.652;9.292;2023-06-22T12:38:17;17.95;;;6.80;;
73642;SDS011;61938;48.652;9.292;2023-06-22T12:40:42;25.45;;;7.53;;
73642;SDS011;61938;48.652;9.292;2023-06-22T12:43:08;17.50;;;6.30;;
73642;SDS011;61938;48.652;9.292;2023-06-22T12:45:33;25.67;;;7.32;;
73642;SDS011;61938;48.652;9.292;2023-06-22T12:47:59;18.83;;;7.38;;
73642;SDS011;61938;48.652;9.292;2023-06-22T12:50:25;19.25;;;6.93;;
73642;SDS011;61938;48.652;9.292;2023-06-22T12:52:50;16.80;;;6.22;;
73642;SDS011;61938;48.652;9.292;2023-06-22T12:55:16;21.08;;;6.88;;
73642;SDS011;61938;48.652;9.292;2023-06-22T12:57:42;22.02;;;6.65;;
73642;SDS011;61938;48.652;9.292;2023-06-22T13:00:07;23.08;;;7.07;;
73642;SDS011;61938;48.652;9.292;2023-06-22T13:02:35;41.75;;;7.68;;
73642;SDS011;61938;48.652;9.292;2023-06-22T13:05:01;18.50;;;6.60;;
73642;SDS011;61938;48.652;9.292;2023-06-22T13:07:27;21.42;;;6.70;;
73642;SDS011;61938;48.652;9.292;2023-06-22T13:09:52;21.00;;;6.82;;
73642;SDS011;61938;48.652;9.292;2023-06-22T13:12:18;22.02;;;7.03;;
73642;SDS011;61938;48.652;9.292;2023-06-22T13:14:45;23.55;;;7.82;;
73642;SDS011;61938;48.652;9.292;2023-06-22T13:17:11;22.90;;;7.43;;
73642;SDS011;61938;48.652;9.292;2023-06-22T13:19:37;22.40;;;7.40;;
73642;SDS011;61938;48.652;9.292;2023-06-22T13:22:03;26.77;;;7.30;;
73642;SDS011;61938;48.652;9.292;2023-06-22T13:24:29;27.13;;;7.13;;
73642;SDS011;61938;48.652;9.292;2023-06-22T13:26:54;25.38;;;6.47;;
73642;SDS011;61938;48.652;9.292;2023-06-22T13:29:20;24.70;;;6.90;;
73642;SDS011;61938;48.652;9.292;2023-06-22T13:31:45;72.47;;;8.18;;
73642;SDS011;61938;48.652;9.292;2023-06-22T13:34:11;17.48;;;6.53;;
73642;SDS011;61938;48.652;9.292;2023-06-22T13:36:37;22.25;;;7.07;;
73642;SDS011;61938;48.652;9.292;2023-06-22T13:39:03;45.55;;;7.40;;
73642;SDS011;61938;48.652;9.292;2023-06-22T13:41:28;15.88;;;6.57;;
73642;SDS011;61938;48.652;9.292;2023-06-22T13:43:54;12.23;;;5.72;;
73642;SDS011;61938;48.652;9.292;2023-06-22T13:46:20;25.60;;;6.95;;
73642;SDS011;61938;48.652;9.292;2023-06-22T13:48:45;20.02;;;6.15;;
73642;SDS011;61938;48.652;9.292;2023-06-22T13:51:11;49.75;;;7.47;;
73642;SDS011;61938;48.652;9.292;2023-06-22T13:53:36;36.40;;;7.82;;
73642;SDS011;61938;48.652;9.292;2023-06-22T13:56:02;28.27;;;6.50;;
73642;SDS011;61938;48.652;9.292;2023-06-22T13:58:27;65.68;;;9.02;;
73642;SDS011;61938;48.652;9.292;2023-06-22T14:00:53;63.70;;;7.72;;
73642;SDS011;61938;48.652;9.292;2023-06-22T14:03:18;25.83;;;6.78;;
73642;SDS011;61938;48.652;9.292;2023-06-22T14:05:44;22.58;;;7.35;;
73642;SDS011;61938;48.652;9.292;2023-06-22T14:08:09;20.20;;;6.50;;
73642;SDS011;61938;48.652;9.292;2023-06-22T14:10:36;108.75;;;11.50;;
73642;SDS011;61938;48.652;9.292;2023-06-22T14:13:02;27.38;;;6.53;;
73642;SDS011;61938;48.652;9.292;2023-06-22T14:15:30;19.90;;;6.88;;
73642;SDS011;61938;48.652;9.292;2023-06-22T14:17:56;99.63;;;10.85;;
73642;SDS011;61938;48.652;9.292;2023-06-22T14:20:21;79.22;;;9.93;;
73642;SDS011;61938;48.652;9.292;2023-06-22T14:22:47;55.30;;;8.30;;
73642;SDS011;61938;48.652;9.292;2023-06-22T14:25:12;19.83;;;6.93;;
73642;SDS011;61938;48.652;9.292;2023-06-22T14:27:38;19.10;;;6.40;;
73642;SDS011;61938;48.652;9.292;2023-06-22T14:30:04;22.42;;;6.68;;
73642;SDS011;61938;48.652;9.292;2023-06-22T14:32:30;38.13;;;8.38;;